createdAt,value
2023-03-28T00:00:07.716Z,953.15
2023-03-28T00:00:19.705Z,953.15
2023-03-28T00:00:30.713Z,953.13
2023-03-28T00:00:41.728Z,953.13
2023-03-28T00:00:52.733Z,953.12
2023-03-28T00:01:04.729Z,953.14
2023-03-28T00:01:15.739Z,953.13
2023-03-28T00:01:26.770Z,953.13
2023-03-28T00:01:38.745Z,953.10
2023-03-28T00:01:50.734Z,953.11
2023-03-28T00:02:01.721Z,953.12
2023-03-28T00:02:12.767Z,953.13
2023-03-28T00:02:23.744Z,953.13
2023-03-28T00:02:34.776Z,953.14
2023-03-28T00:02:46.783Z,953.15
2023-03-28T00:02:57.770Z,953.14
2023-03-28T00:03:08.796Z,953.16
2023-03-28T00:03:20.799Z,953.18
2023-03-28T00:03:32.801Z,953.18
2023-03-28T00:03:44.805Z,953.21
2023-03-28T00:03:56.851Z,953.24
2023-03-28T00:04:08.807Z,953.25
2023-03-28T00:04:19.759Z,953.26
2023-03-28T00:04:31.786Z,953.27
2023-03-28T00:04:43.745Z,953.29
2023-03-28T00:04:55.735Z,953.24
2023-03-28T00:05:06.709Z,953.23
2023-03-28T00:05:17.714Z,953.23
2023-03-28T00:05:28.808Z,953.23
2023-03-28T00:05:40.782Z,953.19
2023-03-28T00:05:51.776Z,953.28
2023-03-28T00:06:03.985Z,953.22
2023-03-28T00:06:14.779Z,953.26
2023-03-28T00:06:26.814Z,953.27
2023-03-28T00:06:37.703Z,953.27
2023-03-28T00:06:48.741Z,953.27
2023-03-28T00:06:59.721Z,953.31
2023-03-28T00:07:10.703Z,953.30
2023-03-28T00:07:21.730Z,953.33
2023-03-28T00:07:32.722Z,953.32
2023-03-28T00:07:43.721Z,953.31
2023-03-28T00:07:54.752Z,953.32
2023-03-28T00:08:05.738Z,953.34
2023-03-28T00:08:16.730Z,953.33
2023-03-28T00:08:27.717Z,953.30
2023-03-28T00:08:38.773Z,953.28
2023-03-28T00:08:50.739Z,953.28
2023-03-28T00:09:01.718Z,953.29
2023-03-28T00:09:12.706Z,953.29
2023-03-28T00:09:23.717Z,953.31
2023-03-28T00:09:34.707Z,953.31
2023-03-28T00:09:45.713Z,953.28
2023-03-28T00:09:56.717Z,953.28
2023-03-28T00:10:07.735Z,953.27
2023-03-28T00:10:18.740Z,953.27
2023-03-28T00:10:29.737Z,953.30
2023-03-28T00:10:41.729Z,953.31
2023-03-28T00:10:52.712Z,953.28
2023-03-28T00:11:03.748Z,953.30
2023-03-28T00:11:14.749Z,953.29
2023-03-28T00:11:25.740Z,953.27
2023-03-28T00:11:36.752Z,953.27
2023-03-28T00:11:48.760Z,953.30
2023-03-28T00:11:59.770Z,953.28
2023-03-28T00:12:11.750Z,953.28
2023-03-28T00:12:23.745Z,953.30
2023-03-28T00:12:34.718Z,953.29
2023-03-28T00:12:45.728Z,953.31
2023-03-28T00:12:56.712Z,953.33
2023-03-28T00:13:07.725Z,953.33
2023-03-28T00:13:18.748Z,953.35
2023-03-28T00:13:29.742Z,953.34
2023-03-28T00:13:41.765Z,953.33
2023-03-28T00:13:53.774Z,953.33
2023-03-28T00:14:04.758Z,953.34
2023-03-28T00:14:16.762Z,953.35
2023-03-28T00:14:28.744Z,953.35
2023-03-28T00:14:39.754Z,953.35
2023-03-28T00:14:51.752Z,953.35
2023-03-28T00:15:03.751Z,953.36
2023-03-28T00:15:14.747Z,953.38
2023-03-28T00:15:25.746Z,953.42
2023-03-28T00:15:37.787Z,953.42
2023-03-28T00:15:49.779Z,953.42
2023-03-28T00:16:02.112Z,953.40
2023-03-28T00:16:13.803Z,953.36
2023-03-28T00:16:25.922Z,953.34
2023-03-28T00:16:37.754Z,953.33
2023-03-28T00:16:48.733Z,953.34
2023-03-28T00:16:59.746Z,953.32
2023-03-28T00:17:10.754Z,953.29
2023-03-28T00:17:21.756Z,953.34
2023-03-28T00:17:32.806Z,953.37
2023-03-28T00:17:44.826Z,953.30
2023-03-28T00:17:56.819Z,953.35
2023-03-28T00:18:08.770Z,953.38
2023-03-28T00:18:19.759Z,953.39
2023-03-28T00:18:31.715Z,953.33
2023-03-28T00:18:42.881Z,953.33
2023-03-28T00:18:53.779Z,953.37
2023-03-28T00:19:05.765Z,953.37
2023-03-28T00:19:16.741Z,953.36
2023-03-28T00:19:27.704Z,953.36
2023-03-28T00:19:39.725Z,953.34
2023-03-28T00:19:50.717Z,953.33
2023-03-28T00:20:01.739Z,953.31
2023-03-28T00:20:13.746Z,953.31
2023-03-28T00:20:24.753Z,953.31
2023-03-28T00:20:35.764Z,953.34
2023-03-28T00:20:47.714Z,953.33
2023-03-28T00:20:58.719Z,953.31
2023-03-28T00:21:09.739Z,953.29
2023-03-28T00:21:21.722Z,953.37
2023-03-28T00:21:32.744Z,953.38
2023-03-28T00:21:43.759Z,953.36
2023-03-28T00:21:55.734Z,953.36
2023-03-28T00:22:06.725Z,953.37
2023-03-28T00:22:17.701Z,953.37
2023-03-28T00:22:28.783Z,953.37
2023-03-28T00:22:40.768Z,953.39
2023-03-28T00:22:52.763Z,953.40
2023-03-28T00:23:04.750Z,953.38
2023-03-28T00:23:16.740Z,953.41
2023-03-28T00:23:27.757Z,953.39
2023-03-28T00:23:39.754Z,953.43
2023-03-28T00:23:50.748Z,953.39
2023-03-28T00:24:01.761Z,953.36
2023-03-28T00:24:13.853Z,953.37
2023-03-28T00:24:24.742Z,953.39
2023-03-28T00:24:35.746Z,953.41
2023-03-28T00:24:47.735Z,953.43
2023-03-28T00:24:58.762Z,953.44
2023-03-28T00:25:09.744Z,953.45
2023-03-28T00:25:20.762Z,953.47
2023-03-28T00:25:32.721Z,953.47
2023-03-28T00:25:43.746Z,953.48
2023-03-28T00:25:54.737Z,953.51
2023-03-28T00:26:06.737Z,953.52
2023-03-28T00:26:17.745Z,953.47
2023-03-28T00:26:28.796Z,953.47
2023-03-28T00:26:40.751Z,953.45
2023-03-28T00:26:51.756Z,953.46
2023-03-28T00:27:02.772Z,953.43
2023-03-28T00:27:14.758Z,953.44
2023-03-28T00:27:26.745Z,953.43
2023-03-28T00:27:37.757Z,953.44
2023-03-28T00:27:48.752Z,953.45
2023-03-28T00:27:59.749Z,953.49
2023-03-28T00:28:10.754Z,953.43
2023-03-28T00:28:21.741Z,953.43
2023-03-28T00:28:32.731Z,953.39
2023-03-28T00:28:43.723Z,953.40
2023-03-28T00:28:54.719Z,953.41
2023-03-28T00:29:05.728Z,953.43
2023-03-28T00:29:16.726Z,953.42
2023-03-28T00:29:27.708Z,953.41
2023-03-28T00:29:38.721Z,953.35
2023-03-28T00:29:49.721Z,953.38
2023-03-28T00:30:00.753Z,953.39
2023-03-28T00:30:11.740Z,953.42
2023-03-28T00:30:22.745Z,953.38
2023-03-28T00:30:33.760Z,953.40
2023-03-28T00:30:45.747Z,953.42
2023-03-28T00:30:57.765Z,953.38
2023-03-28T00:31:09.795Z,953.40
2023-03-28T00:31:21.769Z,953.43
2023-03-28T00:31:33.791Z,953.41
2023-03-28T00:31:45.824Z,953.38
2023-03-28T00:31:57.774Z,953.39
2023-03-28T00:32:09.751Z,953.39
2023-03-28T00:32:21.764Z,953.38
2023-03-28T00:32:32.742Z,953.42
2023-03-28T00:32:43.766Z,953.35
2023-03-28T00:32:55.764Z,953.33
2023-03-28T00:33:07.863Z,953.37
2023-03-28T00:33:19.747Z,953.40
2023-03-28T00:33:30.753Z,953.41
2023-03-28T00:33:41.730Z,953.39
2023-03-28T00:33:52.763Z,953.39
2023-03-28T00:34:04.738Z,953.41
2023-03-28T00:34:15.745Z,953.40
2023-03-28T00:34:26.732Z,953.40
2023-03-28T00:34:37.729Z,953.38
2023-03-28T00:34:48.708Z,953.39
2023-03-28T00:34:59.788Z,953.37
2023-03-28T00:35:11.777Z,953.38
2023-03-28T00:35:23.805Z,953.38
2023-03-28T00:35:35.788Z,953.40
2023-03-28T00:35:47.813Z,953.45
2023-03-28T00:35:59.999Z,953.41
2023-03-28T00:36:11.720Z,953.29
2023-03-28T00:36:22.746Z,953.35
2023-03-28T00:36:33.738Z,953.34
2023-03-28T00:36:44.748Z,953.36
2023-03-28T00:36:55.756Z,953.41
2023-03-28T00:37:06.744Z,953.45
2023-03-28T00:37:18.735Z,953.45
2023-03-28T00:37:29.761Z,953.42
2023-03-28T00:37:40.756Z,953.39
2023-03-28T00:37:52.758Z,953.43
2023-03-28T00:38:03.750Z,953.44
2023-03-28T00:38:14.770Z,953.43
2023-03-28T00:38:26.725Z,953.47
2023-03-28T00:38:37.749Z,953.42
2023-03-28T00:38:49.721Z,953.40
2023-03-28T00:39:00.743Z,953.41
2023-03-28T00:39:11.724Z,953.40
2023-03-28T00:39:22.725Z,953.40
2023-03-28T00:39:33.723Z,953.40
2023-03-28T00:39:44.758Z,953.43
2023-03-28T00:39:56.739Z,953.43
2023-03-28T00:40:08.747Z,953.42
2023-03-28T00:40:19.733Z,953.43
2023-03-28T00:40:30.744Z,953.46
2023-03-28T00:40:41.721Z,953.45
2023-03-28T00:40:52.723Z,953.45
2023-03-28T00:41:03.747Z,953.44
2023-03-28T00:41:14.730Z,953.44
2023-03-28T00:41:25.745Z,953.46
2023-03-28T00:41:36.778Z,953.47
2023-03-28T00:41:48.771Z,953.44
2023-03-28T00:42:00.749Z,953.47
2023-03-28T00:42:11.758Z,953.45
2023-03-28T00:42:23.795Z,953.47
2023-03-28T00:42:35.734Z,953.46
2023-03-28T00:42:46.724Z,953.44
2023-03-28T00:42:57.766Z,953.46
2023-03-28T00:43:08.745Z,953.47
2023-03-28T00:43:19.750Z,953.46
2023-03-28T00:43:31.744Z,953.47
2023-03-28T00:43:42.752Z,953.49
2023-03-28T00:43:54.741Z,953.49
2023-03-28T00:44:06.716Z,953.51
2023-03-28T00:44:17.709Z,953.50
2023-03-28T00:44:28.744Z,953.49
2023-03-28T00:44:40.737Z,953.50
2023-03-28T00:44:51.795Z,953.49
2023-03-28T00:45:02.712Z,953.48
2023-03-28T00:45:13.758Z,953.44
2023-03-28T00:45:25.738Z,953.47
2023-03-28T00:45:36.759Z,953.49
2023-03-28T00:45:56.067Z,953.47
2023-03-28T00:46:08.936Z,953.48
2023-03-28T00:46:11.954Z,953.46
2023-03-28T00:46:21.738Z,953.55
2023-03-28T00:46:32.765Z,953.45
2023-03-28T00:46:44.779Z,953.45
2023-03-28T00:46:55.784Z,953.41
2023-03-28T00:47:06.752Z,953.36
2023-03-28T00:47:18.737Z,953.36
2023-03-28T00:47:29.774Z,953.47
2023-03-28T00:47:41.821Z,953.41
2023-03-28T00:47:53.764Z,953.38
2023-03-28T00:48:04.866Z,953.40
2023-03-28T00:48:16.787Z,953.42
2023-03-28T00:48:27.746Z,953.40
2023-03-28T00:48:39.738Z,953.44
2023-03-28T00:48:51.736Z,953.42
2023-03-28T00:49:02.779Z,953.41
2023-03-28T00:49:14.729Z,953.35
2023-03-28T00:49:25.745Z,953.35
2023-03-28T00:49:37.719Z,953.40
2023-03-28T00:49:48.708Z,953.44
2023-03-28T00:49:59.729Z,953.33
2023-03-28T00:50:10.747Z,953.36
2023-03-28T00:50:21.748Z,953.34
2023-03-28T00:50:33.737Z,953.38
2023-03-28T00:50:44.749Z,953.36
2023-03-28T00:50:55.757Z,953.35
2023-03-28T00:51:07.742Z,953.40
2023-03-28T00:51:19.509Z,953.45
2023-03-28T00:51:29.726Z,953.47
2023-03-28T00:51:40.744Z,953.39
2023-03-28T00:51:51.734Z,953.39
2023-03-28T00:52:02.746Z,953.41
2023-03-28T00:52:13.721Z,953.42
2023-03-28T00:52:24.694Z,953.43
2023-03-28T00:52:35.776Z,953.44
2023-03-28T00:52:46.754Z,953.43
2023-03-28T00:52:57.745Z,953.41
2023-03-28T00:53:08.731Z,953.49
2023-03-28T00:53:19.749Z,953.47
2023-03-28T00:53:30.747Z,953.35
2023-03-28T00:53:41.753Z,953.41
2023-03-28T00:53:52.767Z,953.43
2023-03-28T00:54:04.760Z,953.43
2023-03-28T00:54:16.727Z,953.44
2023-03-28T00:54:27.712Z,953.45
2023-03-28T00:54:38.712Z,953.46
2023-03-28T00:54:49.705Z,953.44
2023-03-28T00:55:00.790Z,953.44
2023-03-28T00:55:12.732Z,953.48
2023-03-28T00:55:23.720Z,953.50
2023-03-28T00:55:34.701Z,953.52
2023-03-28T00:55:45.745Z,953.48
2023-03-28T00:55:56.872Z,953.47
2023-03-28T00:56:07.742Z,953.50
2023-03-28T00:56:19.740Z,953.43
2023-03-28T00:56:31.718Z,953.43
2023-03-28T00:56:43.737Z,953.43
2023-03-28T00:56:54.753Z,953.41
2023-03-28T00:57:06.751Z,953.45
2023-03-28T00:57:17.777Z,953.40
2023-03-28T00:57:29.742Z,953.48
2023-03-28T00:57:40.740Z,953.45
2023-03-28T00:57:52.727Z,953.43
2023-03-28T00:58:03.738Z,953.42
2023-03-28T00:58:14.741Z,953.41
2023-03-28T00:58:25.744Z,953.40
2023-03-28T00:58:37.727Z,953.43
2023-03-28T00:58:48.723Z,953.39
2023-03-28T00:58:59.750Z,953.38
2023-03-28T00:59:11.720Z,953.44
2023-03-28T00:59:22.758Z,953.45
2023-03-28T00:59:33.762Z,953.45
2023-03-28T00:59:45.725Z,953.46
2023-03-28T00:59:56.743Z,953.49
2023-03-28T01:00:08.742Z,953.47
2023-03-28T01:00:19.732Z,953.49
2023-03-28T01:00:30.723Z,953.51
2023-03-28T01:00:42.726Z,953.50
2023-03-28T01:00:53.741Z,953.49
2023-03-28T01:01:04.734Z,953.51
2023-03-28T01:01:16.801Z,953.47
2023-03-28T01:01:27.772Z,953.51
2023-03-28T01:01:38.847Z,953.52
2023-03-28T01:01:50.828Z,953.52
2023-03-28T01:02:01.843Z,953.52
2023-03-28T01:02:13.764Z,953.50
2023-03-28T01:02:24.930Z,953.51
2023-03-28T01:02:36.808Z,953.53
2023-03-28T01:02:47.802Z,953.51
2023-03-28T01:02:58.866Z,953.54
2023-03-28T01:03:10.866Z,953.56
2023-03-28T01:03:22.826Z,953.59
2023-03-28T01:03:34.007Z,953.61
2023-03-28T01:03:44.890Z,953.61
2023-03-28T01:03:56.701Z,953.59
2023-03-28T01:04:07.728Z,953.57
2023-03-28T01:04:18.734Z,953.55
2023-03-28T01:04:29.729Z,953.55
2023-03-28T01:04:40.729Z,953.56
2023-03-28T01:04:51.748Z,953.56
2023-03-28T01:05:02.781Z,953.62
2023-03-28T01:05:14.766Z,953.61
2023-03-28T01:05:25.760Z,953.60
2023-03-28T01:05:37.745Z,953.57
2023-03-28T01:05:48.744Z,953.55
2023-03-28T01:06:00.928Z,953.57
2023-03-28T01:06:11.788Z,953.58
2023-03-28T01:06:23.760Z,953.56
2023-03-28T01:06:35.722Z,953.55
2023-03-28T01:06:46.724Z,953.55
2023-03-28T01:06:57.754Z,953.55
2023-03-28T01:07:09.749Z,953.57
2023-03-28T01:07:21.749Z,953.57
2023-03-28T01:07:33.742Z,953.57
2023-03-28T01:07:44.737Z,953.59
2023-03-28T01:07:56.717Z,953.57
2023-03-28T01:08:07.731Z,953.58
2023-03-28T01:08:18.729Z,953.59
2023-03-28T01:08:30.718Z,953.60
2023-03-28T01:08:42.745Z,953.62
2023-03-28T01:08:54.737Z,953.64
2023-03-28T01:09:06.727Z,953.63
2023-03-28T01:09:17.712Z,953.61
2023-03-28T01:09:28.734Z,953.62
2023-03-28T01:09:39.754Z,953.61
2023-03-28T01:09:51.779Z,953.58
2023-03-28T01:10:02.763Z,953.59
2023-03-28T01:10:13.743Z,953.59
2023-03-28T01:10:25.719Z,953.58
2023-03-28T01:10:36.721Z,953.60
2023-03-28T01:10:47.745Z,953.60
2023-03-28T01:10:59.758Z,953.57
2023-03-28T01:11:10.743Z,953.56
2023-03-28T01:11:22.729Z,953.56
2023-03-28T01:11:34.723Z,953.54
2023-03-28T01:11:46.726Z,953.54
2023-03-28T01:11:57.752Z,953.54
2023-03-28T01:12:09.759Z,953.56
2023-03-28T01:12:21.744Z,953.53
2023-03-28T01:12:33.745Z,953.51
2023-03-28T01:12:44.710Z,953.53
2023-03-28T01:12:56.724Z,953.49
2023-03-28T01:13:07.718Z,953.54
2023-03-28T01:13:18.712Z,953.56
2023-03-28T01:13:29.747Z,953.58
2023-03-28T01:13:40.691Z,953.58
2023-03-28T01:13:51.735Z,953.57
2023-03-28T01:14:03.725Z,953.57
2023-03-28T01:14:15.749Z,953.58
2023-03-28T01:14:27.741Z,953.57
2023-03-28T01:14:39.723Z,953.58
2023-03-28T01:14:50.748Z,953.60
2023-03-28T01:15:01.727Z,953.63
2023-03-28T01:15:12.722Z,953.64
2023-03-28T01:15:23.728Z,953.63
2023-03-28T01:15:34.730Z,953.62
2023-03-28T01:15:45.772Z,953.60
2023-03-28T01:15:57.879Z,953.57
2023-03-28T01:16:08.765Z,953.57
2023-03-28T01:16:20.766Z,953.56
2023-03-28T01:16:32.790Z,953.57
2023-03-28T01:16:43.709Z,953.59
2023-03-28T01:16:54.728Z,953.60
2023-03-28T01:17:05.738Z,953.60
2023-03-28T01:17:17.722Z,953.61
2023-03-28T01:17:28.743Z,953.59
2023-03-28T01:17:40.740Z,953.60
2023-03-28T01:17:51.736Z,953.56
2023-03-28T01:18:03.812Z,953.58
2023-03-28T01:18:14.729Z,953.58
2023-03-28T01:18:25.715Z,953.59
2023-03-28T01:18:36.753Z,953.60
2023-03-28T01:18:48.712Z,953.60
2023-03-28T01:18:59.719Z,953.61
2023-03-28T01:19:10.760Z,953.59
2023-03-28T01:19:21.742Z,953.49
2023-03-28T01:19:33.760Z,953.58
2023-03-28T01:19:44.736Z,953.59
2023-03-28T01:19:56.723Z,953.60
2023-03-28T01:20:07.766Z,953.59
2023-03-28T01:20:19.736Z,953.62
2023-03-28T01:20:31.719Z,953.63
2023-03-28T01:20:42.745Z,953.60
2023-03-28T01:20:54.741Z,953.62
2023-03-28T01:21:05.724Z,953.61
2023-03-28T01:21:16.724Z,953.61
2023-03-28T01:21:27.706Z,953.58
2023-03-28T01:21:38.686Z,953.60
2023-03-28T01:21:49.708Z,953.61
2023-03-28T01:22:00.699Z,953.61
2023-03-28T01:22:11.695Z,953.62
2023-03-28T01:22:22.741Z,953.64
2023-03-28T01:22:33.715Z,953.65
2023-03-28T01:22:56.769Z,953.66
2023-03-28T01:22:58.232Z,953.63
2023-03-28T01:23:07.715Z,953.61
2023-03-28T01:23:18.716Z,953.63
2023-03-28T01:23:29.714Z,953.64
2023-03-28T01:23:40.721Z,953.65
2023-03-28T01:23:51.729Z,953.66
2023-03-28T01:24:11.284Z,953.67
2023-03-28T01:24:15.721Z,953.67
2023-03-28T01:24:26.731Z,953.65
2023-03-28T01:24:37.704Z,953.64
2023-03-28T01:24:48.692Z,953.66
2023-03-28T01:24:59.718Z,953.68
2023-03-28T01:25:11.718Z,953.61
2023-03-28T01:25:22.728Z,953.64
2023-03-28T01:25:34.717Z,953.69
2023-03-28T01:25:45.754Z,953.66
2023-03-28T01:25:57.859Z,953.64
2023-03-28T01:26:09.722Z,953.68
2023-03-28T01:26:20.699Z,953.67
2023-03-28T01:26:31.705Z,953.68
2023-03-28T01:26:42.710Z,953.71
2023-03-28T01:26:53.695Z,953.69
2023-03-28T01:27:04.699Z,953.68
2023-03-28T01:27:15.731Z,953.69
2023-03-28T01:27:27.717Z,953.68
2023-03-28T01:27:38.716Z,953.69
2023-03-28T01:27:49.742Z,953.69
2023-03-28T01:28:00.735Z,953.69
2023-03-28T01:28:11.747Z,953.71
2023-03-28T01:28:22.756Z,953.68
2023-03-28T01:28:34.721Z,953.66
2023-03-28T01:28:46.739Z,953.69
2023-03-28T01:28:58.708Z,953.72
2023-03-28T01:29:09.802Z,953.71
2023-03-28T01:29:21.782Z,953.75
2023-03-28T01:29:33.761Z,953.68
2023-03-28T01:29:45.766Z,953.66
2023-03-28T01:29:57.708Z,953.71
2023-03-28T01:30:08.729Z,953.75
2023-03-28T01:30:19.754Z,953.79
2023-03-28T01:30:31.728Z,953.81
2023-03-28T01:30:42.745Z,953.78
2023-03-28T01:30:54.726Z,953.71
2023-03-28T01:31:05.750Z,953.75
2023-03-28T01:31:17.768Z,953.76
2023-03-28T01:31:29.783Z,953.76
2023-03-28T01:31:41.807Z,953.74
2023-03-28T01:31:52.797Z,953.74
2023-03-28T01:32:03.697Z,953.70
2023-03-28T01:32:14.711Z,953.66
2023-03-28T01:32:25.760Z,953.69
2023-03-28T01:32:37.806Z,953.71
2023-03-28T01:32:48.725Z,953.72
2023-03-28T01:32:59.820Z,953.72
2023-03-28T01:33:11.776Z,953.69
2023-03-28T01:33:23.771Z,953.71
2023-03-28T01:33:35.741Z,953.75
2023-03-28T01:33:47.764Z,953.77
2023-03-28T01:33:59.714Z,953.77
2023-03-28T01:34:10.712Z,953.79
2023-03-28T01:34:21.720Z,953.79
2023-03-28T01:34:32.715Z,953.76
2023-03-28T01:34:43.746Z,953.75
2023-03-28T01:34:54.731Z,953.77
2023-03-28T01:35:05.723Z,953.78
2023-03-28T01:35:16.757Z,953.80
2023-03-28T01:35:27.808Z,953.80
2023-03-28T01:35:39.712Z,953.78
2023-03-28T01:35:50.781Z,953.78
2023-03-28T01:36:02.070Z,953.77
2023-03-28T01:36:12.697Z,953.76
2023-03-28T01:36:34.685Z,953.75
2023-03-28T01:36:36.717Z,953.65
2023-03-28T01:36:47.753Z,953.72
2023-03-28T01:36:59.696Z,953.78
2023-03-28T01:37:10.707Z,953.80
2023-03-28T01:37:21.705Z,953.80
2023-03-28T01:37:32.720Z,953.78
2023-03-28T01:37:43.697Z,953.76
2023-03-28T01:37:54.736Z,953.74
2023-03-28T01:38:05.764Z,953.77
2023-03-28T01:38:17.728Z,953.80
2023-03-28T01:38:29.726Z,953.81
2023-03-28T01:38:41.704Z,953.84
2023-03-28T01:38:52.713Z,953.82
2023-03-28T01:39:03.741Z,953.86
2023-03-28T01:39:14.748Z,953.88
2023-03-28T01:39:25.742Z,953.86
2023-03-28T01:39:37.727Z,953.88
2023-03-28T01:39:48.731Z,953.87
2023-03-28T01:39:59.760Z,953.90
2023-03-28T01:40:11.737Z,953.89
2023-03-28T01:40:23.730Z,953.87
2023-03-28T01:40:35.715Z,953.83
2023-03-28T01:40:46.735Z,953.82
2023-03-28T01:40:57.716Z,953.76
2023-03-28T01:41:08.699Z,953.78
2023-03-28T01:41:19.715Z,953.78
2023-03-28T01:41:30.703Z,953.80
2023-03-28T01:41:41.733Z,953.84
2023-03-28T01:41:52.741Z,953.82
2023-03-28T01:42:03.740Z,953.81
2023-03-28T01:42:14.732Z,953.81
2023-03-28T01:42:26.724Z,953.80
2023-03-28T01:42:37.726Z,953.82
2023-03-28T01:42:48.733Z,953.83
2023-03-28T01:42:59.738Z,953.79
2023-03-28T01:43:10.761Z,953.79
2023-03-28T01:43:22.747Z,953.80
2023-03-28T01:43:33.750Z,953.78
2023-03-28T01:43:45.731Z,953.81
2023-03-28T01:43:57.755Z,953.81
2023-03-28T01:44:08.749Z,953.82
2023-03-28T01:44:20.718Z,953.82
2023-03-28T01:44:31.734Z,953.84
2023-03-28T01:44:43.730Z,953.85
2023-03-28T01:44:54.736Z,953.85
2023-03-28T01:45:05.735Z,953.85
2023-03-28T01:45:16.731Z,953.84
2023-03-28T01:45:27.752Z,953.84
2023-03-28T01:45:39.794Z,953.83
2023-03-28T01:45:50.724Z,953.82
2023-03-28T01:46:02.142Z,953.80
2023-03-28T01:46:12.783Z,953.79
2023-03-28T01:46:23.829Z,953.77
2023-03-28T01:46:34.776Z,953.77
2023-03-28T01:46:46.716Z,953.78
2023-03-28T01:46:57.734Z,953.78
2023-03-28T01:47:09.718Z,953.78
2023-03-28T01:47:20.717Z,953.77
2023-03-28T01:47:32.733Z,953.77
2023-03-28T01:47:44.742Z,953.79
2023-03-28T01:47:55.803Z,953.82
2023-03-28T01:48:06.723Z,953.85
2023-03-28T01:48:17.752Z,953.86
2023-03-28T01:48:29.727Z,953.80
2023-03-28T01:48:40.722Z,953.82
2023-03-28T01:48:51.720Z,953.82
2023-03-28T01:49:02.733Z,953.82
2023-03-28T01:49:13.730Z,953.83
2023-03-28T01:49:24.747Z,953.85
2023-03-28T01:49:35.744Z,953.86
2023-03-28T01:49:47.733Z,953.89
2023-03-28T01:49:59.725Z,953.91
2023-03-28T01:50:10.706Z,953.90
2023-03-28T01:50:21.742Z,953.90
2023-03-28T01:50:33.709Z,953.89
2023-03-28T01:50:44.709Z,953.90
2023-03-28T01:50:55.690Z,953.90
2023-03-28T01:51:06.788Z,953.91
2023-03-28T01:51:18.765Z,953.92
2023-03-28T01:51:30.759Z,953.90
2023-03-28T01:51:41.759Z,953.91
2023-03-28T01:51:53.738Z,953.92
2023-03-28T01:52:04.740Z,953.93
2023-03-28T01:52:16.714Z,953.94
2023-03-28T01:52:27.734Z,953.94
2023-03-28T01:52:39.704Z,953.93
2023-03-28T01:52:50.775Z,953.93
2023-03-28T01:53:02.759Z,953.92
2023-03-28T01:53:13.749Z,953.93
2023-03-28T01:53:25.722Z,953.93
2023-03-28T01:53:36.742Z,953.94
2023-03-28T01:53:48.745Z,953.94
2023-03-28T01:53:59.742Z,953.93
2023-03-28T01:54:10.740Z,953.92
2023-03-28T01:54:21.741Z,953.92
2023-03-28T01:54:32.744Z,953.94
2023-03-28T01:54:43.740Z,953.97
2023-03-28T01:54:54.722Z,953.97
2023-03-28T01:55:06.708Z,953.97
2023-03-28T01:55:17.714Z,953.98
2023-03-28T01:55:28.720Z,953.98
2023-03-28T01:55:41.795Z,953.99
2023-03-28T01:55:50.697Z,953.99
2023-03-28T01:56:01.905Z,953.99
2023-03-28T01:56:12.678Z,953.99
2023-03-28T01:56:23.723Z,953.99
2023-03-28T01:56:34.779Z,953.99
2023-03-28T01:56:45.757Z,953.98
2023-03-28T01:56:56.784Z,953.96
2023-03-28T01:57:07.755Z,953.97
2023-03-28T01:57:18.833Z,953.99
2023-03-28T01:57:30.766Z,953.98
2023-03-28T01:57:41.786Z,953.96
2023-03-28T01:57:53.747Z,953.95
2023-03-28T01:58:05.745Z,953.95
2023-03-28T01:58:16.744Z,953.95
2023-03-28T01:58:28.753Z,953.96
2023-03-28T01:58:40.712Z,953.97
2023-03-28T01:58:51.694Z,953.98
2023-03-28T01:59:02.679Z,953.98
2023-03-28T01:59:13.717Z,953.97
2023-03-28T01:59:24.721Z,953.91
2023-03-28T01:59:35.749Z,953.92
2023-03-28T01:59:47.741Z,953.92
2023-03-28T01:59:59.728Z,953.95
2023-03-28T02:00:11.718Z,953.88
2023-03-28T02:00:22.716Z,953.86
2023-03-28T02:00:33.713Z,953.90
2023-03-28T02:00:44.754Z,953.95
2023-03-28T02:00:55.760Z,953.98
2023-03-28T02:01:07.776Z,954.02
2023-03-28T02:01:18.753Z,953.98
2023-03-28T02:01:29.822Z,954.03
2023-03-28T02:01:41.847Z,954.01
2023-03-28T02:01:53.722Z,953.98
2023-03-28T02:02:05.733Z,953.95
2023-03-28T02:02:16.734Z,953.95
2023-03-28T02:02:28.756Z,953.93
2023-03-28T02:02:39.777Z,953.95
2023-03-28T02:02:50.774Z,953.97
2023-03-28T02:03:01.779Z,953.93
2023-03-28T02:03:12.812Z,953.96
2023-03-28T02:03:23.788Z,953.96
2023-03-28T02:03:35.853Z,953.95
2023-03-28T02:03:47.752Z,953.93
2023-03-28T02:03:58.732Z,953.95
2023-03-28T02:04:20.769Z,953.97
2023-03-28T02:04:22.731Z,953.93
2023-03-28T02:04:33.784Z,953.97
2023-03-28T02:04:45.735Z,953.96
2023-03-28T02:04:57.159Z,953.97
2023-03-28T02:05:08.722Z,953.96
2023-03-28T02:05:20.733Z,953.99
2023-03-28T02:05:31.721Z,953.99
2023-03-28T02:05:42.729Z,954.01
2023-03-28T02:05:53.744Z,954.06
2023-03-28T02:06:04.745Z,954.00
2023-03-28T02:06:16.718Z,954.00
2023-03-28T02:06:27.719Z,954.02
2023-03-28T02:06:38.777Z,953.89
2023-03-28T02:06:50.749Z,953.92
2023-03-28T02:07:02.731Z,953.99
2023-03-28T02:07:13.743Z,954.01
2023-03-28T02:07:25.734Z,954.00
2023-03-28T02:07:36.728Z,954.02
2023-03-28T02:07:47.732Z,954.01
2023-03-28T02:07:59.727Z,954.06
2023-03-28T02:08:10.720Z,954.11
2023-03-28T02:08:21.689Z,954.05
2023-03-28T02:08:32.715Z,954.01
2023-03-28T02:08:43.695Z,953.99
2023-03-28T02:08:54.703Z,953.96
2023-03-28T02:09:05.704Z,953.99
2023-03-28T02:09:16.709Z,954.07
2023-03-28T02:09:27.725Z,954.10
2023-03-28T02:09:39.719Z,954.07
2023-03-28T02:09:50.735Z,954.08
2023-03-28T02:10:01.751Z,954.08
2023-03-28T02:10:13.720Z,954.08
2023-03-28T02:10:24.728Z,954.04
2023-03-28T02:10:36.714Z,954.03
2023-03-28T02:10:47.710Z,954.05
2023-03-28T02:10:58.702Z,954.07
2023-03-28T02:11:09.724Z,954.10
2023-03-28T02:11:20.737Z,954.05
2023-03-28T02:11:31.742Z,954.07
2023-03-28T02:11:43.735Z,954.08
2023-03-28T02:11:54.714Z,954.09
2023-03-28T02:12:05.729Z,954.05
2023-03-28T02:12:17.723Z,954.04
2023-03-28T02:12:29.721Z,954.05
2023-03-28T02:12:40.709Z,954.08
2023-03-28T02:12:51.740Z,954.03
2023-03-28T02:13:02.734Z,954.03
2023-03-28T02:13:14.738Z,954.04
2023-03-28T02:13:25.716Z,954.06
2023-03-28T02:13:36.740Z,954.06
2023-03-28T02:13:47.728Z,954.08
2023-03-28T02:13:58.710Z,954.12
2023-03-28T02:14:09.750Z,954.05
2023-03-28T02:14:21.736Z,954.07
2023-03-28T02:14:32.761Z,954.04
2023-03-28T02:14:44.739Z,954.05
2023-03-28T02:14:56.753Z,954.07
2023-03-28T02:15:07.728Z,954.06
2023-03-28T02:15:18.714Z,954.07
2023-03-28T02:15:29.750Z,954.10
2023-03-28T02:15:40.749Z,953.97
2023-03-28T02:15:52.907Z,954.01
2023-03-28T02:16:03.935Z,954.02
2023-03-28T02:16:15.815Z,954.04
2023-03-28T02:16:27.792Z,954.07
2023-03-28T02:16:39.807Z,954.06
2023-03-28T02:16:50.820Z,954.05
2023-03-28T02:17:02.757Z,953.99
2023-03-28T02:17:13.762Z,954.02
2023-03-28T02:17:24.753Z,954.02
2023-03-28T02:17:36.794Z,954.02
2023-03-28T02:17:47.800Z,954.05
2023-03-28T02:17:58.740Z,954.05
2023-03-28T02:18:09.754Z,954.04
2023-03-28T02:18:21.721Z,954.10
2023-03-28T02:18:32.836Z,954.09
2023-03-28T02:18:43.712Z,954.09
2023-03-28T02:18:54.732Z,954.07
2023-03-28T02:19:06.722Z,954.07
2023-03-28T02:19:18.716Z,954.03
2023-03-28T02:19:29.738Z,954.05
2023-03-28T02:19:40.748Z,954.05
2023-03-28T02:19:52.725Z,954.03
2023-03-28T02:20:03.742Z,953.99
2023-03-28T02:20:15.760Z,954.05
2023-03-28T02:20:27.752Z,954.03
2023-03-28T02:20:39.480Z,954.05
2023-03-28T02:20:49.730Z,953.95
2023-03-28T02:21:00.722Z,953.98
2023-03-28T02:21:11.749Z,954.05
2023-03-28T02:21:22.726Z,954.04
2023-03-28T02:21:33.722Z,953.98
2023-03-28T02:21:44.723Z,954.04